createdAt,value
2023-03-16T00:01:03.377Z,51.55
2023-03-16T00:03:29.938Z,51.73
2023-03-16T00:05:56.441Z,51.78
2023-03-16T00:08:22.950Z,52.14
2023-03-16T00:10:49.353Z,51.83
2023-03-16T00:13:15.746Z,51.75
2023-03-16T00:15:42.132Z,52.40
2023-03-16T00:18:08.619Z,52.36
2023-03-16T00:20:35.241Z,52.46
2023-03-16T00:23:01.732Z,52.43
2023-03-16T00:25:28.120Z,52.30
2023-03-16T00:27:54.495Z,51.99
2023-03-16T00:30:20.847Z,51.35
2023-03-16T00:32:47.301Z,51.49
2023-03-16T00:35:13.746Z,52.34
2023-03-16T00:37:40.289Z,52.41
2023-03-16T00:40:06.754Z,52.47
2023-03-16T00:42:33.142Z,52.50
2023-03-16T00:44:59.556Z,52.18
2023-03-16T00:47:25.938Z,51.90
2023-03-16T00:49:52.389Z,51.94
2023-03-16T00:52:18.791Z,52.41
2023-03-16T00:54:45.200Z,52.42
2023-03-16T00:57:11.699Z,52.10
2023-03-16T00:59:38.129Z,52.16
2023-03-16T01:02:04.711Z,52.42
2023-03-16T01:04:31.156Z,50.97
2023-03-16T01:06:57.602Z,51.07
2023-03-16T01:09:23.987Z,51.20
2023-03-16T01:11:50.419Z,50.05
2023-03-16T01:14:16.864Z,49.57
2023-03-16T01:16:43.261Z,49.19
2023-03-16T01:19:09.686Z,49.06
2023-03-16T01:21:36.074Z,49.46
2023-03-16T01:24:02.493Z,49.36
2023-03-16T01:26:28.879Z,49.84
2023-03-16T01:28:55.284Z,50.15
2023-03-16T01:31:22.007Z,49.87
2023-03-16T01:33:48.487Z,49.01
2023-03-16T01:36:14.897Z,49.10
2023-03-16T01:38:41.323Z,48.66
2023-03-16T01:41:07.727Z,48.89
2023-03-16T01:43:34.144Z,49.48
2023-03-16T01:46:00.647Z,49.44
2023-03-16T01:48:27.248Z,48.98
2023-03-16T01:50:53.663Z,48.67
2023-03-16T01:53:20.074Z,48.24
2023-03-16T01:55:46.517Z,48.58
2023-03-16T01:58:12.942Z,48.58
2023-03-16T02:00:39.333Z,49.74
2023-03-16T02:03:05.714Z,50.88
2023-03-16T02:05:32.217Z,51.23
2023-03-16T02:07:58.729Z,49.54
2023-03-16T02:10:25.223Z,50.40
2023-03-16T02:12:51.634Z,51.61
2023-03-16T02:15:18.030Z,53.64
2023-03-16T02:17:44.397Z,53.87
2023-03-16T02:20:10.818Z,52.48
2023-03-16T02:22:37.240Z,51.07
2023-03-16T02:25:03.884Z,51.06
2023-03-16T02:27:30.289Z,53.27
2023-03-16T02:29:56.687Z,51.19
2023-03-16T02:32:23.133Z,50.66
2023-03-16T02:34:49.535Z,52.96
2023-03-16T02:37:15.963Z,52.10
2023-03-16T02:39:42.397Z,50.34
2023-03-16T02:42:08.931Z,50.19
2023-03-16T02:44:35.340Z,49.61
2023-03-16T02:47:01.741Z,50.12
2023-03-16T02:49:28.173Z,52.47
2023-03-16T02:51:54.652Z,52.77
2023-03-16T02:54:21.053Z,52.01
2023-03-16T02:56:47.500Z,51.60
2023-03-16T02:59:14.035Z,52.51
2023-03-16T03:01:40.497Z,54.26
2023-03-16T03:04:07.001Z,56.57
2023-03-16T03:06:33.381Z,57.22
2023-03-16T03:08:59.779Z,57.23
2023-03-16T03:11:26.457Z,57.70
2023-03-16T03:13:52.864Z,57.53
2023-03-16T03:16:19.279Z,58.15
2023-03-16T03:18:45.926Z,58.73
2023-03-16T03:21:12.324Z,59.05
2023-03-16T03:23:38.693Z,59.38
2023-03-16T03:26:05.115Z,58.90
2023-03-16T03:28:31.517Z,58.25
2023-03-16T03:30:57.889Z,57.48
2023-03-16T03:33:24.310Z,57.34
2023-03-16T03:35:50.903Z,57.19
2023-03-16T03:38:17.398Z,57.53
2023-03-16T03:40:43.814Z,57.03
2023-03-16T03:43:10.187Z,55.74
2023-03-16T03:45:36.658Z,54.76
2023-03-16T03:48:03.139Z,53.68
2023-03-16T03:50:30.017Z,53.95
2023-03-16T03:52:56.623Z,54.04
2023-03-16T03:55:23.039Z,53.79
2023-03-16T03:57:49.491Z,54.54
2023-03-16T04:00:15.912Z,55.75
2023-03-16T04:02:42.514Z,56.25
2023-03-16T04:05:09.032Z,56.66
2023-03-16T04:07:35.497Z,57.08
2023-03-16T04:10:02.013Z,57.13
2023-03-16T04:12:28.453Z,57.29
2023-03-16T04:14:54.947Z,57.90
2023-03-16T04:17:21.362Z,56.20
2023-03-16T04:19:47.762Z,56.80
2023-03-16T04:22:14.134Z,55.58
2023-03-16T04:24:40.539Z,54.62
2023-03-16T04:27:07.026Z,54.68
2023-03-16T04:29:33.390Z,55.00
2023-03-16T04:31:59.858Z,54.23
2023-03-16T04:34:26.226Z,53.80
2023-03-16T04:36:52.634Z,54.07
2023-03-16T04:39:19.041Z,54.33
2023-03-16T04:41:45.482Z,54.44
2023-03-16T04:44:11.897Z,54.81
2023-03-16T04:46:38.420Z,54.57
2023-03-16T04:49:04.936Z,54.79
2023-03-16T04:51:31.304Z,54.48
2023-03-16T04:53:57.856Z,54.33
2023-03-16T04:56:24.294Z,54.00
2023-03-16T04:58:50.668Z,53.75
2023-03-16T05:01:17.091Z,53.42
2023-03-16T05:03:43.637Z,53.25
2023-03-16T05:06:10.037Z,53.07
2023-03-16T05:08:36.558Z,52.81
2023-03-16T05:11:03.179Z,52.49
2023-03-16T05:13:29.740Z,52.37
2023-03-16T05:15:56.317Z,52.55
2023-03-16T05:18:22.966Z,52.80
2023-03-16T05:20:49.427Z,53.35
2023-03-16T05:23:15.859Z,53.78
2023-03-16T05:25:42.434Z,53.67
2023-03-16T05:28:08.853Z,54.76
2023-03-16T05:30:35.250Z,54.03
2023-03-16T05:33:01.804Z,53.23
2023-03-16T05:35:28.781Z,53.82
2023-03-16T05:37:55.211Z,53.55
2023-03-16T05:40:21.628Z,53.45
2023-03-16T05:42:48.012Z,53.40
2023-03-16T05:45:14.502Z,53.70
2023-03-16T05:47:40.922Z,54.57
2023-03-16T05:50:07.321Z,54.97
2023-03-16T05:52:33.787Z,55.08
2023-03-16T05:55:00.190Z,55.06
2023-03-16T05:57:26.566Z,53.35
2023-03-16T05:59:52.979Z,52.97
2023-03-16T06:02:19.374Z,53.91
2023-03-16T06:04:45.769Z,54.13
2023-03-16T06:07:12.325Z,53.97
2023-03-16T06:09:38.746Z,54.34
2023-03-16T06:12:05.110Z,53.15
2023-03-16T06:14:31.511Z,53.62
2023-03-16T06:16:57.879Z,56.98
2023-03-16T06:19:24.295Z,57.89
2023-03-16T06:21:50.739Z,58.20
2023-03-16T06:24:17.213Z,57.71
2023-03-16T06:26:43.889Z,57.49
2023-03-16T06:29:10.434Z,57.38
2023-03-16T06:31:36.850Z,56.73
2023-03-16T06:34:03.305Z,56.90
2023-03-16T06:36:29.711Z,57.47
2023-03-16T06:38:56.142Z,57.36
2023-03-16T06:41:22.561Z,56.42
2023-03-16T06:43:49.357Z,54.37
2023-03-16T06:46:15.777Z,53.62
2023-03-16T06:48:42.204Z,52.63
2023-03-16T06:51:10.551Z,52.41
2023-03-16T06:53:37.207Z,52.64
2023-03-16T06:56:03.680Z,53.82
2023-03-16T06:58:30.268Z,52.93
2023-03-16T07:00:56.764Z,52.72
2023-03-16T07:03:23.182Z,53.13
2023-03-16T07:05:49.586Z,52.89
2023-03-16T07:08:16.021Z,52.47
2023-03-16T07:10:42.477Z,53.22
2023-03-16T07:13:08.863Z,53.30
2023-03-16T07:15:35.585Z,52.47
2023-03-16T07:18:01.974Z,52.68
2023-03-16T07:20:28.562Z,53.18
2023-03-16T07:22:55.110Z,53.58
2023-03-16T07:25:21.566Z,52.42
2023-03-16T07:27:47.954Z,52.59
2023-03-16T07:30:14.373Z,52.57
2023-03-16T07:32:40.855Z,51.02
2023-03-16T07:35:07.247Z,51.51
2023-03-16T07:37:33.687Z,53.67
2023-03-16T07:40:00.259Z,54.54
2023-03-16T07:42:26.682Z,55.71
2023-03-16T07:44:53.114Z,55.25
2023-03-16T07:47:19.550Z,54.10
2023-03-16T07:49:45.925Z,54.86
2023-03-16T07:52:12.332Z,54.86
2023-03-16T07:54:38.754Z,52.58
2023-03-16T07:57:05.144Z,51.21
2023-03-16T07:59:31.537Z,50.31
2023-03-16T08:01:58.018Z,50.22
2023-03-16T08:04:24.458Z,50.92
2023-03-16T08:06:50.926Z,49.86
2023-03-16T08:09:17.405Z,50.05
2023-03-16T08:11:44.064Z,50.09
2023-03-16T08:14:10.429Z,49.22
2023-03-16T08:16:36.848Z,48.58
2023-03-16T08:19:03.252Z,48.30
2023-03-16T08:21:29.630Z,47.78
2023-03-16T08:23:56.051Z,47.48
2023-03-16T08:26:22.555Z,47.41
2023-03-16T08:28:48.942Z,46.67
2023-03-16T08:31:15.396Z,45.84
2023-03-16T08:33:41.909Z,45.90
2023-03-16T08:36:08.420Z,46.30
2023-03-16T08:38:34.856Z,46.83
2023-03-16T08:41:01.250Z,46.01
2023-03-16T08:43:27.699Z,45.83
2023-03-16T08:45:54.163Z,44.97
2023-03-16T08:48:20.627Z,45.75
2023-03-16T08:50:47.116Z,44.67
2023-03-16T08:53:13.649Z,43.00
2023-03-16T08:55:40.199Z,44.15
2023-03-16T08:58:06.597Z,44.39
2023-03-16T09:00:33.008Z,43.23
2023-03-16T09:02:59.456Z,43.15
2023-03-16T09:05:25.958Z,42.94
2023-03-16T09:07:52.353Z,42.83
2023-03-16T09:10:18.875Z,41.52
2023-03-16T09:12:45.282Z,41.84
2023-03-16T09:15:11.684Z,40.47
2023-03-16T09:17:38.087Z,40.02
2023-03-16T09:20:15.331Z,38.66
2023-03-16T09:22:45.952Z,39.54
2023-03-16T09:25:12.373Z,39.44
2023-03-16T09:27:38.861Z,39.51
2023-03-16T09:30:05.441Z,39.31
2023-03-16T09:32:31.882Z,40.67
2023-03-16T09:34:58.292Z,39.99
2023-03-16T09:37:24.869Z,39.28
2023-03-16T09:39:51.819Z,38.97
2023-03-16T09:42:18.373Z,38.43
2023-03-16T09:44:44.735Z,38.28
2023-03-16T09:47:11.489Z,37.93
2023-03-16T09:49:37.957Z,37.27
2023-03-16T09:52:04.412Z,38.27
2023-03-16T09:54:30.885Z,37.49
2023-03-16T09:56:57.400Z,38.19
2023-03-16T09:59:23.856Z,38.04
2023-03-16T10:01:50.301Z,36.66
2023-03-16T10:04:16.703Z,36.05
2023-03-16T10:06:43.138Z,36.38
2023-03-16T10:09:09.777Z,37.07
2023-03-16T10:11:36.226Z,35.75
2023-03-16T10:14:02.597Z,36.36
2023-03-16T10:16:29.022Z,36.47
2023-03-16T10:18:55.567Z,36.01
2023-03-16T10:21:22.000Z,36.54
2023-03-16T10:23:48.407Z,36.06
2023-03-16T10:26:14.887Z,36.79
2023-03-16T10:28:41.254Z,36.94
2023-03-16T10:31:07.662Z,36.16
2023-03-16T10:33:34.037Z,36.04
2023-03-16T10:36:00.522Z,36.46
2023-03-16T10:38:26.930Z,36.32
2023-03-16T10:40:53.397Z,36.93
2023-03-16T10:43:19.942Z,36.77
2023-03-16T10:45:46.455Z,35.78
2023-03-16T10:48:12.937Z,35.22
2023-03-16T10:50:39.440Z,34.27
2023-03-16T10:53:05.913Z,34.38
2023-03-16T10:55:32.301Z,34.18
2023-03-16T10:57:58.694Z,33.84
2023-03-16T11:00:25.077Z,34.11
2023-03-16T11:02:51.517Z,33.96
2023-03-16T11:05:17.952Z,34.72
2023-03-16T11:07:44.549Z,34.71
2023-03-16T11:10:11.087Z,33.45
2023-03-16T11:12:37.450Z,33.90
2023-03-16T11:15:07.493Z,33.86
2023-03-16T11:17:35.693Z,34.17
2023-03-16T11:20:02.228Z,34.14
2023-03-16T11:22:28.825Z,34.22
2023-03-16T11:24:55.241Z,34.20
2023-03-16T11:27:21.706Z,33.09
2023-03-16T11:29:48.064Z,32.81
2023-03-16T11:32:15.357Z,32.75
2023-03-16T11:34:41.908Z,32.58
2023-03-16T11:37:08.324Z,32.20
2023-03-16T11:39:34.729Z,31.81
2023-03-16T11:42:01.089Z,32.57
2023-03-16T11:44:27.524Z,32.32
2023-03-16T11:46:53.952Z,31.93
2023-03-16T11:49:20.613Z,30.89
2023-03-16T11:51:47.006Z,31.85
2023-03-16T11:54:13.375Z,31.84
2023-03-16T11:56:39.825Z,31.80
2023-03-16T11:59:06.241Z,31.54
2023-03-16T12:01:32.726Z,32.90
2023-03-16T12:03:59.242Z,31.89
2023-03-16T12:06:25.847Z,30.71
2023-03-16T12:08:52.338Z,31.26
2023-03-16T12:11:18.723Z,30.83
2023-03-16T12:13:45.264Z,31.26
2023-03-16T12:16:11.878Z,30.88
2023-03-16T12:18:38.623Z,32.01
2023-03-16T12:21:05.073Z,31.75
2023-03-16T12:23:31.515Z,31.42
2023-03-16T12:25:57.955Z,31.38
2023-03-16T12:28:24.372Z,31.14
2023-03-16T12:30:50.793Z,31.71
2023-03-16T12:33:17.653Z,30.97
2023-03-16T12:35:44.123Z,30.96
2023-03-16T12:38:10.539Z,31.15
2023-03-16T12:40:36.919Z,31.13
2023-03-16T12:43:03.364Z,30.61
2023-03-16T12:45:30.238Z,30.89
2023-03-16T12:47:56.754Z,30.77
2023-03-16T12:50:23.147Z,30.95
2023-03-16T12:52:49.521Z,30.83
2023-03-16T12:55:15.941Z,31.01
2023-03-16T12:57:42.388Z,31.48
2023-03-16T13:00:08.863Z,30.76
2023-03-16T13:02:35.286Z,31.34
2023-03-16T13:05:01.693Z,31.03
2023-03-16T13:07:28.238Z,31.88
2023-03-16T13:09:54.772Z,31.17
2023-03-16T13:12:21.158Z,31.25
2023-03-16T13:14:47.530Z,31.18
2023-03-16T13:17:14.041Z,31.25
2023-03-16T13:19:40.413Z,31.46
2023-03-16T13:22:06.842Z,30.93
2023-03-16T13:24:33.496Z,31.13
2023-03-16T13:26:59.904Z,30.42
2023-03-16T13:29:26.368Z,30.95
2023-03-16T13:31:52.883Z,31.27
2023-03-16T13:34:19.379Z,31.09
2023-03-16T13:36:45.844Z,30.97
2023-03-16T13:39:12.235Z,30.96
2023-03-16T13:41:38.931Z,30.36
2023-03-16T13:44:05.348Z,30.39
2023-03-16T13:46:31.742Z,31.55
2023-03-16T13:48:58.202Z,31.34
2023-03-16T13:51:24.610Z,31.39
2023-03-16T13:53:50.969Z,30.74
2023-03-16T13:56:17.395Z,30.60
2023-03-16T13:58:43.881Z,31.18
2023-03-16T14:01:10.279Z,31.21
2023-03-16T14:03:36.974Z,30.87
2023-03-16T14:06:03.452Z,30.95
2023-03-16T14:08:29.896Z,30.45
2023-03-16T14:10:56.650Z,30.62
2023-03-16T14:13:23.830Z,30.59
2023-03-16T14:15:50.367Z,30.04
2023-03-16T14:18:16.779Z,31.27
2023-03-16T14:20:43.178Z,31.28
2023-03-16T14:23:09.617Z,31.51
2023-03-16T14:25:35.995Z,30.85
2023-03-16T14:28:02.404Z,31.41
2023-03-16T14:30:28.812Z,30.93
2023-03-16T14:32:55.291Z,31.47
2023-03-16T14:35:21.757Z,31.23
2023-03-16T14:37:48.233Z,30.68
2023-03-16T14:40:14.697Z,30.15
2023-03-16T14:42:41.094Z,30.53
2023-03-16T14:45:07.693Z,30.72
2023-03-16T14:47:34.103Z,30.41
2023-03-16T14:50:00.569Z,30.37
2023-03-16T14:52:26.976Z,30.09
2023-03-16T14:54:53.390Z,29.90
2023-03-16T14:57:19.772Z,29.64
2023-03-16T14:59:46.462Z,29.31
2023-03-16T15:02:12.909Z,29.71
2023-03-16T15:04:39.328Z,29.73
2023-03-16T15:07:05.705Z,29.80
2023-03-16T15:09:32.106Z,29.48
2023-03-16T15:11:59.128Z,29.40
2023-03-16T15:14:25.570Z,29.55
2023-03-16T15:16:52.018Z,30.43
2023-03-16T15:19:18.436Z,30.72
2023-03-16T15:21:44.895Z,30.72
2023-03-16T15:24:11.650Z,32.07
2023-03-16T15:26:38.061Z,31.74
2023-03-16T15:29:04.441Z,31.12
2023-03-16T15:31:30.885Z,30.56
2023-03-16T15:33:57.328Z,30.40
2023-03-16T15:36:24.048Z,30.44
2023-03-16T15:38:50.612Z,30.89
2023-03-16T15:41:17.425Z,30.75
2023-03-16T15:43:43.945Z,31.04
2023-03-16T15:46:10.354Z,31.68
2023-03-16T15:48:39.066Z,31.78
2023-03-16T15:51:05.682Z,31.89
2023-03-16T15:53:34.614Z,30.91
2023-03-16T15:56:02.218Z,30.74
2023-03-16T15:58:28.676Z,30.02
2023-03-16T16:00:55.130Z,29.92
2023-03-16T16:03:21.521Z,30.36
2023-03-16T16:05:47.954Z,30.48
2023-03-16T16:08:14.637Z,30.61
2023-03-16T16:10:41.075Z,30.46
2023-03-16T16:13:07.615Z,30.58
2023-03-16T16:15:34.648Z,31.15
2023-03-16T16:18:21.352Z,31.69
2023-03-16T16:20:47.856Z,31.24
2023-03-16T16:23:14.305Z,31.90
2023-03-16T16:25:40.817Z,31.80
2023-03-16T16:28:07.392Z,32.05
2023-03-16T16:30:34.044Z,32.18
2023-03-16T16:33:00.560Z,32.49
2023-03-16T16:35:27.560Z,32.51
2023-03-16T16:37:54.216Z,32.84
2023-03-16T16:40:20.757Z,33.01
2023-03-16T16:42:47.239Z,34.09
2023-03-16T16:45:13.631Z,34.37
2023-03-16T16:47:40.023Z,34.64
2023-03-16T16:50:06.521Z,35.11
2023-03-16T16:52:35.659Z,35.82
2023-03-16T16:55:02.074Z,35.44
2023-03-16T16:57:28.436Z,35.56
2023-03-16T16:59:54.807Z,36.77
2023-03-16T17:02:21.486Z,36.76
2023-03-16T17:04:51.071Z,37.28
2023-03-16T17:07:17.617Z,37.48
2023-03-16T17:09:44.054Z,37.45
2023-03-16T17:12:10.416Z,37.29
2023-03-16T17:14:37.207Z,37.60
2023-03-16T17:17:03.637Z,37.70
2023-03-16T17:19:30.239Z,38.60
2023-03-16T17:21:56.635Z,37.84
2023-03-16T17:24:23.037Z,38.52
2023-03-16T17:26:49.605Z,39.07
2023-03-16T17:29:16.186Z,38.67
2023-03-16T17:31:42.661Z,38.76
2023-03-16T17:34:09.099Z,38.66
2023-03-16T17:36:35.489Z,38.84
2023-03-16T17:39:02.038Z,39.04
2023-03-16T17:41:28.625Z,38.75
2023-03-16T17:43:55.764Z,38.67
2023-03-16T17:46:22.221Z,38.92
2023-03-16T17:48:48.710Z,38.58
2023-03-16T17:51:15.453Z,38.73
2023-03-16T17:53:42.040Z,39.24
2023-03-16T17:56:08.466Z,39.16
2023-03-16T17:58:34.964Z,39.45
2023-03-16T18:01:01.505Z,39.44
2023-03-16T18:03:30.490Z,39.45
2023-03-16T18:05:57.471Z,39.35
2023-03-16T18:08:23.886Z,39.13
2023-03-16T18:10:53.415Z,39.34
2023-03-16T18:13:19.821Z,38.72
2023-03-16T18:15:46.532Z,39.30
2023-03-16T18:18:13.012Z,39.75
2023-03-16T18:20:39.550Z,39.42
2023-03-16T18:23:05.937Z,39.35
2023-03-16T18:25:32.559Z,39.32
2023-03-16T18:28:01.255Z,39.18
2023-03-16T18:30:27.992Z,39.04
2023-03-16T18:32:54.665Z,39.83
2023-03-16T18:35:21.286Z,39.46
2023-03-16T18:37:47.694Z,39.71
2023-03-16T18:40:14.133Z,39.67
2023-03-16T18:42:40.573Z,39.24
2023-03-16T18:45:06.993Z,39.81
2023-03-16T18:47:33.487Z,39.11
2023-03-16T18:49:59.988Z,38.83
2023-03-16T18:52:26.529Z,38.62
2023-03-16T18:54:53.387Z,38.81
2023-03-16T18:57:19.909Z,38.77
2023-03-16T18:59:46.417Z,38.50
2023-03-16T19:02:12.931Z,38.90
2023-03-16T19:04:39.486Z,38.62
2023-03-16T19:07:05.877Z,38.45
2023-03-16T19:09:32.478Z,38.61
2023-03-16T19:11:58.887Z,37.98
2023-03-16T19:14:27.250Z,37.65
2023-03-16T19:16:56.057Z,37.62
2023-03-16T19:19:22.483Z,37.77
2023-03-16T19:21:50.664Z,37.90
2023-03-16T19:24:17.321Z,38.10
2023-03-16T19:26:43.797Z,38.20
2023-03-16T19:29:10.412Z,38.26
2023-03-16T19:31:36.883Z,38.43
2023-03-16T19:34:03.374Z,38.10
2023-03-16T19:36:29.877Z,37.77
2023-03-16T19:38:56.419Z,38.60
2023-03-16T19:41:22.808Z,38.04
2023-03-16T19:43:49.236Z,38.55
2023-03-16T19:46:15.665Z,38.15
2023-03-16T19:48:42.128Z,38.22
2023-03-16T19:51:08.532Z,38.95
2023-03-16T19:53:35.014Z,38.58
2023-03-16T19:56:01.437Z,39.20
2023-03-16T19:58:27.992Z,39.03
2023-03-16T20:00:54.422Z,39.77
2023-03-16T20:03:21.084Z,40.68
2023-03-16T20:05:47.664Z,41.27
2023-03-16T20:08:14.107Z,41.41
2023-03-16T20:10:40.505Z,41.69
2023-03-16T20:13:07.061Z,41.65
2023-03-16T20:15:33.459Z,42.00
2023-03-16T20:17:59.831Z,41.62
2023-03-16T20:20:26.257Z,41.51
2023-03-16T20:22:52.703Z,41.83
2023-03-16T20:25:19.255Z,41.39
2023-03-16T20:27:45.876Z,41.50
2023-03-16T20:30:12.256Z,41.41
2023-03-16T20:32:38.781Z,41.00
2023-03-16T20:35:05.227Z,40.99
2023-03-16T20:37:31.691Z,41.44
2023-03-16T20:39:58.173Z,41.91
2023-03-16T20:42:24.610Z,41.65
2023-03-16T20:44:51.103Z,42.17
2023-03-16T20:47:17.638Z,43.51
2023-03-16T20:49:44.069Z,44.34
2023-03-16T20:52:10.619Z,43.42
2023-03-16T20:54:37.140Z,42.75
2023-03-16T20:57:03.700Z,42.32
2023-03-16T20:59:30.257Z,42.06
2023-03-16T21:01:56.859Z,41.85
2023-03-16T21:04:23.349Z,43.65
2023-03-16T21:06:49.832Z,43.81
2023-03-16T21:09:16.458Z,43.68
2023-03-16T21:11:42.889Z,44.40
2023-03-16T21:14:09.323Z,44.87
2023-03-16T21:16:36.152Z,44.88
2023-03-16T21:19:02.710Z,45.25
2023-03-16T21:21:29.326Z,46.28
2023-03-16T21:23:55.894Z,45.85
2023-03-16T21:26:22.289Z,45.68
2023-03-16T21:28:48.735Z,45.64
2023-03-16T21:31:17.506Z,45.35
2023-03-16T21:33:45.446Z,45.49
2023-03-16T21:36:11.925Z,45.10
2023-03-16T21:38:38.473Z,46.07
2023-03-16T21:41:04.992Z,45.74
2023-03-16T21:43:31.615Z,46.06
2023-03-16T21:45:58.124Z,46.40
2023-03-16T21:48:24.722Z,46.54
2023-03-16T21:50:51.138Z,46.03
2023-03-16T21:53:17.584Z,46.18
2023-03-16T21:55:44.384Z,46.67
2023-03-16T21:58:10.832Z,46.04
2023-03-16T22:00:37.294Z,47.17
2023-03-16T22:03:03.741Z,47.92
2023-03-16T22:05:32.954Z,48.49
2023-03-16T22:07:59.537Z,48.85
2023-03-16T22:10:26.086Z,47.89
2023-03-16T22:12:52.606Z,47.43
2023-03-16T22:15:18.980Z,46.87
2023-03-16T22:17:45.555Z,47.68
2023-03-16T22:20:12.014Z,48.02
2023-03-16T22:22:38.432Z,48.35
2023-03-16T22:25:04.879Z,49.39
2023-03-16T22:27:31.639Z,49.15
2023-03-16T22:29:58.077Z,49.17
2023-03-16T22:32:24.927Z,49.36
2023-03-16T22:34:51.385Z,50.20
2023-03-16T22:37:17.817Z,50.57
2023-03-16T22:39:44.382Z,50.28
2023-03-16T22:42:10.855Z,49.72
2023-03-16T22:44:37.280Z,49.52
2023-03-16T22:47:03.743Z,50.09
2023-03-16T22:49:31.346Z,49.78
2023-03-16T22:51:57.950Z,49.50
2023-03-16T22:54:24.537Z,50.51
2023-03-16T22:56:51.168Z,50.32
2023-03-16T22:59:17.694Z,49.24
2023-03-16T23:01:44.151Z,49.31
2023-03-16T23:04:10.570Z,49.88
2023-03-16T23:06:36.977Z,51.40
2023-03-16T23:09:03.589Z,52.70
2023-03-16T23:11:30.130Z,53.00
2023-03-16T23:13:56.573Z,53.60
2023-03-16T23:16:23.116Z,54.01
2023-03-16T23:18:49.650Z,54.13
2023-03-16T23:21:16.082Z,53.73
2023-03-16T23:23:46.219Z,53.14
2023-03-16T23:26:17.379Z,54.66
2023-03-16T23:28:43.979Z,55.10
2023-03-16T23:31:10.463Z,55.07
2023-03-16T23:33:36.937Z,55.39
2023-03-16T23:36:03.419Z,54.96
2023-03-16T23:38:29.921Z,54.81
2023-03-16T23:40:56.412Z,54.71
2023-03-16T23:43:22.846Z,54.95
2023-03-16T23:45:49.353Z,55.63
2023-03-16T23:48:15.787Z,55.57
2023-03-16T23:50:44.126Z,55.95
2023-03-16T23:53:10.556Z,55.60
2023-03-16T23:55:37.010Z,55.63
2023-03-16T23:58:03.622Z,55.65
